Al Azamiyah, Iraq
Current Conditions -  °F | °C
As of 9:00 PM on Thursday 23 Oct 2014 (Local Time) from ORBI Reporting Station
Haze Haze  
Wind Chill: 70°   Ceiling: Unl
Heat Index: 70°   Visibility: 3mi
Dew Point: 46°   Wind: 1mph
Humidity: 43%   Direction: NA
Pressure: 30"   Gusts: NA
Location:  33.38°N, 44.37°E
Report Text: ORBI 231800Z VRB01KT 5000 BR NSC 21/08 Q1016 NOSIG
Loading
Personal Weather Stations






























Interactive Weather Map
Tropical Storm Tracking
New forecast layout! Learn more

10-Day Weather Forecast

Advertisements
Track Severe Weather on mobile